North Central West Virginia Airport
KCKB : now visible

Airfield :











YOU CAN JOIN US ON...

 
LOGIN :

Register | Disclaimer

   EN    FR    IT 

 









Legend :    VFR   Marginal VFR   IFR   Intensive IFR   Very Intensive IFR
Visi :
Ceiling :
>= 8 km
>= 3000ft
5 to 8 km
1000 to 3000 ft
1500m to 5 km
500 to 1000 ft
800 to 1500m
200 to 500 ft
< 800m
< 200 ft
Symbols :   Thunderstorms  Fog  Heavy snow  Heavy precipitations  Wind > 20 kt







- Airport Elevation : 1217 ft
- IATA code : CKB


KCKB - North Central West Virginia

CURRENT METAR :
  • 181853Z 10SM FEW037 32/19 A2998 RMK AO2 SLP133 T03170194

EXPIRED METARs :
  • 181753Z 26008KT 10SM CLR 31/21 A2999 RMK AO2 SLP138 T03060206 10311 20244 58002
  • 181653Z VRB03KT 10SM FEW027 31/21 A3000 RMK AO2 SLP139 T03060211

TAF KCKB
Valid from the 18 at 18:00 until the 19 at 18:00 UTC


181730Z 1818/1918 VRB03KT P6SM FEW027
FM190900 VRB02KT 6SM BR BKN012
FM191300 21005KT P6SM SCT035
FM191600 23006KT P6SM SCT060
KZOB FIR / North America



MET'MAP, your aeronautical weather chart ! - Copyright ORBIFLY December 2007 - Disclaimer

ORBIFLY MET'MAP TEAM :

Programming & Development : Alexandra Zaïnal
Concept & Development : Baudouin d'Aumeries
Co-Development & Prog : Marc-Olivier Méhu
Technical & hardware support : Manuel Goepfert

Contact : metmap@orbifly.com




SOURCES & CREDITS :

   NOAA       Earth
Advisory